Temp: 5.4°C   Baro: 1006.6mb
  Wind: 0.9mph   Dir: SSW (211°)
  Rain: 0.2mm (0.0mm/hr)
  Solar: 0W/m2  Hum: 93%

Historic data

Bath Spa Weather Station Historical Data
Daily Summary for October 04, 2022 Units:  Metric    English   Both
Daily Weekly Monthly Yearly Custom
  High: Low: Average:
Temperature: 18.4 °C 13.1 °C 15.5 °C
Dew Point: 14 °C 10.9 °C 12.9 °C
Humidity: 92% 75% 84%
Wind Speed: 19.3km/h 0km/h 8.4km/h
Wind Gust: 35.4km/h - -
Wind- - SSW
Pressure: 1020.2 hPa 1012.8 hPa -
Precipitation: 0 mm    
Historical Graphs
 
 
Tabular Data for October 04, 2022
Time Temperature Dew Point Pressure Wind Wind Speed Wind Gust Humidity Rainfall Rate (Hourly) solar
00:09 13.7 °C 12 °C 1020.2 hPa SSE 1 km/h 3.2 km/h 89.6% 0 mm 0 W/m2
00:14 13.7 °C 12.1 °C 1020.2 hPa SSE 1.1 km/h 3.2 km/h 90% 0 mm 0 W/m2
00:19 13.8 °C 12.2 °C 1020.2 hPa SSE 0.8 km/h 3.2 km/h 90% 0 mm 0 W/m2
00:24 13.9 °C 12.3 °C 1020.2 hPa SSE 0.6 km/h 4.8 km/h 90% 0 mm 0 W/m2
00:29 14.1 °C 12.5 °C 1020.2 hPa Calm   3.2 km/h 90% 0 mm 0 W/m2
00:34 14.1 °C 12.5 °C 1020.2 hPa SSE 0.6 km/h 4.8 km/h 90% 0 mm 0 W/m2
00:39 14.1 °C 12.5 °C 1019.9 hPa SSE 1.4 km/h 3.2 km/h 90% 0 mm 0 W/m2
00:44 13.9 °C 12.4 °C 1019.9 hPa SSE 0.3 km/h 3.2 km/h 90.4% 0 mm 0 W/m2
00:49 13.9 °C 12.5 °C 1019.5 hPa SSE 2.7 km/h 3.2 km/h 91% 0 mm 0 W/m2
00:54 13.8 °C 12.4 °C 1019.5 hPa SSE 2.1 km/h 4.8 km/h 91% 0 mm 0 W/m2
00:59 13.8 °C 12.4 °C 1019.5 hPa SSE 1.6 km/h 4.8 km/h 91% 0 mm 0 W/m2
01:04 13.8 °C 12.4 °C 1019.5 hPa Calm   3.2 km/h 91% 0 mm 0 W/m2
01:09 13.8 °C 12.4 °C 1019.5 hPa Calm     91% 0 mm 0 W/m2
01:14 13.8 °C 12.3 °C 1019.5 hPa Calm     91% 0 mm 0 W/m2
01:19 13.7 °C 12.3 °C 1019.5 hPa Calm     91% 0 mm 0 W/m2
01:24 13.7 °C 12.3 °C 1019.5 hPa Calm     91% 0 mm 0 W/m2
01:29 13.8 °C 12.3 °C 1019.5 hPa Calm     91% 0 mm 0 W/m2
01:34 13.8 °C 12.4 °C 1019.5 hPa South 1 km/h 6.4 km/h 91.4% 0 mm 0 W/m2
01:39 13.9 °C 12.6 °C 1019.2 hPa South 1.3 km/h 4.8 km/h 92% 0 mm 0 W/m2
01:44 13.8 °C 12.4 °C 1019.2 hPa South 1.3 km/h 3.2 km/h 91.4% 0 mm 0 W/m2
01:49 13.9 °C 12.5 °C 1019.2 hPa South 1.8 km/h 3.2 km/h 91.2% 0 mm 0 W/m2
01:54 13.9 °C 12.6 °C 1019.2 hPa South 1.3 km/h 3.2 km/h 91.6% 0 mm 0 W/m2
01:59 13.9 °C 12.7 °C 1018.8 hPa South 2.1 km/h 6.4 km/h 92% 0 mm 0 W/m2
02:04 14 °C 12.7 °C 1018.8 hPa South 1.6 km/h 6.4 km/h 92% 0 mm 0 W/m2
02:09 14.1 °C 12.8 °C 1018.8 hPa South 0.3 km/h 4.8 km/h 91.6% 0 mm 0 W/m2
02:14 14.1 °C 12.7 °C 1018.8 hPa South 1.9 km/h 4.8 km/h 91.2% 0 mm 0 W/m2
02:19 14.1 °C 12.7 °C 1018.8 hPa South 1.4 km/h 6.4 km/h 91% 0 mm 0 W/m2
02:24 14.1 °C 12.7 °C 1018.8 hPa South 2.1 km/h 4.8 km/h 91% 0 mm 0 W/m2
02:29 14.1 °C 12.7 °C 1018.8 hPa South 1.8 km/h 4.8 km/h 91% 0 mm 0 W/m2
02:34 14.1 °C 12.7 °C 1018.8 hPa SSW 4 km/h 9.7 km/h 91% 0 mm 0 W/m2
02:39 14.1 °C 12.7 °C 1018.8 hPa SSW 2.1 km/h 6.4 km/h 91% 0 mm 0 W/m2
02:44 14.1 °C 12.6 °C 1018.8 hPa SSW 2.3 km/h 4.8 km/h 90.2% 0 mm 0 W/m2
02:49 14.1 °C 12.5 °C 1018.8 hPa SSW 1.9 km/h 6.4 km/h 90% 0 mm 0 W/m2
02:54 14.1 °C 12.5 °C 1018.8 hPa SSW 1.3 km/h 6.4 km/h 90% 0 mm 0 W/m2
02:59 14.1 °C 12.5 °C 1018.5 hPa SSW 1.6 km/h 4.8 km/h 90% 0 mm 0 W/m2
03:04 14.1 °C 12.5 °C 1018.5 hPa SSW 2.9 km/h 3.2 km/h 90% 0 mm 0 W/m2
03:09 14.1 °C 12.5 °C 1018.5 hPa Calm   6.4 km/h 90% 0 mm 0 W/m2
03:14 14.1 °C 12.5 °C 1018.5 hPa Calm   1.6 km/h 90% 0 mm 0 W/m2
03:19 14.1 °C 12.5 °C 1018.5 hPa SSW 1.3 km/h 4.8 km/h 90% 0 mm 0 W/m2
03:24 14.1 °C 12.5 °C 1018.2 hPa SSW 2.3 km/h 6.4 km/h 90% 0 mm 0 W/m2
03:29 14.1 °C 12.5 °C 1018.2 hPa SSW 4 km/h 8 km/h 90% 0 mm 0 W/m2
03:34 14.1 °C 12.3 °C 1018.2 hPa SSW 3.1 km/h 8 km/h 89.2% 0 mm 0 W/m2
03:39 14.1 °C 12.3 °C 1018.2 hPa SSW 1.4 km/h 6.4 km/h 89% 0 mm 0 W/m2
03:44 14.1 °C 12.3 °C 1018.2 hPa SSW 3.1 km/h 9.7 km/h 89% 0 mm 0 W/m2
03:49 14.1 °C 12.1 °C 1017.8 hPa SSW 5.3 km/h 9.7 km/h 88% 0 mm 0 W/m2
03:54 14.1 °C 12.1 °C 1017.8 hPa SW 6 km/h 11.3 km/h 88% 0 mm 0 W/m2
03:59 14.2 °C 12.1 °C 1017.8 hPa SW 6.6 km/h 12.9 km/h 87% 0 mm 0 W/m2
04:04 14.2 °C 12.1 °C 1017.8 hPa SSW 4.2 km/h 9.7 km/h 87% 0 mm 0 W/m2
04:08 14.2 °C 12.1 °C 1017.8 hPa SW 8.5 km/h 14.5 km/h 87% 0 mm 0 W/m2
04:14 14.2 °C 12 °C 1017.8 hPa SW 6 km/h 14.5 km/h 86.6% 0 mm 0 W/m2
04:19 14.1 °C 11.8 °C 1017.8 hPa WSW 5.8 km/h 11.3 km/h 86% 0 mm 0 W/m2
04:24 14.1 °C 11.8 °C 1017.8 hPa WSW 3.2 km/h 9.7 km/h 86% 0 mm 0 W/m2
04:29 14.1 °C 12 °C 1017.8 hPa WSW 2.7 km/h 9.7 km/h 87% 0 mm 0 W/m2
04:34 14.1 °C 11.9 °C 1017.8 hPa WSW 2.9 km/h 6.4 km/h 87% 0 mm 0 W/m2
04:39 14 °C 11.8 °C 1017.8 hPa WSW 4.7 km/h 11.3 km/h 86.6% 0 mm 0 W/m2
04:44 13.9 °C 11.7 °C 1017.8 hPa West 4.7 km/h 9.7 km/h 86% 0 mm 0 W/m2
04:49 13.9 °C 11.7 °C 1017.5 hPa SW 9.2 km/h 12.9 km/h 86% 0 mm 0 W/m2
04:54 14 °C 11.7 °C 1017.8 hPa SW 7.9 km/h 16.1 km/h 86% 0 mm 0 W/m2
04:59 14 °C 11.7 °C 1017.5 hPa SSW 4 km/h 11.3 km/h 86% 0 mm 0 W/m2
05:04 13.9 °C 11.6 °C 1017.5 hPa WSW 3.2 km/h 12.9 km/h 86% 0 mm 0 W/m2
05:09 13.9 °C 11.6 °C 1017.5 hPa SW 4.7 km/h 11.3 km/h 86% 0 mm 0 W/m2
05:14 13.9 °C 11.6 °C 1017.5 hPa SW 5.8 km/h 14.5 km/h 86% 0 mm 0 W/m2
05:19 13.8 °C 11.5 °C 1017.5 hPa SW 8.5 km/h 17.7 km/h 86% 0 mm 0 W/m2
05:24 13.8 °C 11.5 °C 1017.5 hPa SW 6.4 km/h 12.9 km/h 86% 0 mm 0 W/m2
05:29 13.7 °C 11.4 °C 1017.5 hPa SW 7.7 km/h 14.5 km/h 86% 0 mm 0 W/m2
05:34 13.7 °C 11.3 °C 1017.5 hPa SW 8.4 km/h 14.5 km/h 86% 0 mm 0 W/m2
05:39 13.6 °C 11.3 °C 1017.5 hPa SW 7.9 km/h 16.1 km/h 86% 0 mm 0 W/m2
05:44 13.6 °C 11.1 °C 1017.5 hPa WSW 6.4 km/h 16.1 km/h 85% 0 mm 0 W/m2
05:49 13.6 °C 11.1 °C 1017.5 hPa SW 7.1 km/h 14.5 km/h 85% 0 mm 0 W/m2
05:54 13.6 °C 11.1 °C 1017.5 hPa SW 7.9 km/h 14.5 km/h 85% 0 mm 0 W/m2
05:59 13.6 °C 11.1 °C 1017.5 hPa WSW 7.2 km/h 14.5 km/h 85% 0 mm 0 W/m2
06:04 13.6 °C 11.1 °C 1017.5 hPa SW 2.9 km/h 11.3 km/h 84.8% 0 mm 0 W/m2
06:09 13.6 °C 10.9 °C 1017.5 hPa WSW 1 km/h 12.9 km/h 84% 0 mm 0 W/m2
06:14 13.6 °C 10.9 °C 1017.5 hPa SSW 4.5 km/h 11.3 km/h 84% 0 mm 0 W/m2
06:19 13.7 °C 10.9 °C 1017.2 hPa SW 2.6 km/h 11.3 km/h 84% 0 mm 0 W/m2
06:24 13.7 °C 11 °C 1017.2 hPa SSW 5 km/h 12.9 km/h 84% 0 mm 0 W/m2
06:29 13.7 °C 11 °C 1017.2 hPa SW 8.5 km/h 19.3 km/h 84% 0 mm 0 W/m2
06:34 13.6 °C 10.9 °C 1017.2 hPa SW 9 km/h 19.3 km/h 84.2% 0 mm 0 W/m2
06:39 13.6 °C 11.1 °C 1017.2 hPa South 8.4 km/h 17.7 km/h 85% 0 mm 0 W/m2
06:44 13.5 °C 11.2 °C 1017.2 hPa SSW 6.6 km/h 17.7 km/h 85.8% 0 mm 0 W/m2
06:49 13.4 °C 11.1 °C 1017.2 hPa SSW 6.9 km/h 14.5 km/h 86.2% 0 mm 0 W/m2
06:54 13.3 °C 11.2 °C 1016.8 hPa SSW 8.2 km/h 17.7 km/h 87% 0 mm 0 W/m2
06:59 13.2 °C 11.1 °C 1016.8 hPa SSW 10.5 km/h 17.7 km/h 87% 0 mm 0 W/m2
07:04 13.2 °C 11.2 °C 1016.8 hPa SSW 10 km/h 17.7 km/h 87.6% 0 mm 0 W/m2
07:09 13.2 °C 11.3 °C 1016.8 hPa South 6.4 km/h 14.5 km/h 88% 0 mm 0 W/m2
07:14 13.2 °C 11.3 °C 1016.8 hPa SSW 7.4 km/h 16.1 km/h 88% 0 mm 5 W/m2
07:19 13.1 °C 11.2 °C 1016.8 hPa South 8.2 km/h 16.1 km/h 88.4% 0 mm 9 W/m2
07:24 13.1 °C 11.3 °C 1016.8 hPa South 7.6 km/h 16.1 km/h 89% 0 mm 16 W/m2
07:29 13.2 °C 11.4 °C 1016.8 hPa SSW 5.5 km/h 16.1 km/h 89% 0 mm 16 W/m2
07:34 13.2 °C 11.4 °C 1016.8 hPa SSW 10 km/h 16.1 km/h 89% 0 mm 14 W/m2
07:39 13.2 °C 11.4 °C 1016.8 hPa SW 6 km/h 16.1 km/h 89% 0 mm 23 W/m2
07:44 13.3 °C 11.5 °C 1017.2 hPa SSW 9 km/h 14.5 km/h 89% 0 mm 28 W/m2
07:49 13.4 °C 11.6 °C 1016.8 hPa SSW 6.3 km/h 12.9 km/h 89% 0 mm 37 W/m2
07:54 13.4 °C 11.6 °C 1016.8 hPa South 5.1 km/h 11.3 km/h 89% 0 mm 40 W/m2
07:59 13.5 °C 11.7 °C 1016.8 hPa SSW 5.6 km/h 17.7 km/h 89% 0 mm 42 W/m2
08:04 13.6 °C 11.8 °C 1016.8 hPa South 7.1 km/h 12.9 km/h 89% 0 mm 42 W/m2
08:09 13.7 °C 11.9 °C 1016.8 hPa SSW 5.5 km/h 12.9 km/h 89% 0 mm 47 W/m2
08:14 13.8 °C 12 °C 1016.8 hPa SSW 5 km/h 11.3 km/h 89% 0 mm 62 W/m2
08:19 13.8 °C 12 °C 1016.8 hPa SSW 8.4 km/h 14.5 km/h 88.8% 0 mm 54 W/m2
08:24 13.9 °C 12.1 °C 1016.8 hPa South 5.3 km/h 17.7 km/h 88.8% 0 mm 70 W/m2
08:29 14.1 °C 12.1 °C 1016.8 hPa SSW 7.1 km/h 12.9 km/h 88% 0 mm 95 W/m2
08:34 14.1 °C 12.1 °C 1016.8 hPa SSW 9.2 km/h 17.7 km/h 88% 0 mm 83 W/m2
08:39 14.2 °C 12.2 °C 1016.8 hPa SSW 9.7 km/h 17.7 km/h 88% 0 mm 79 W/m2
08:44 14.2 °C 12.2 °C 1016.8 hPa South 9.7 km/h 20.9 km/h 88% 0 mm 111 W/m2
08:49 14.3 °C 12.3 °C 1016.8 hPa SSW 8 km/h 14.5 km/h 88% 0 mm 120 W/m2
08:54 14.3 °C 12.3 °C 1016.8 hPa SSW 9.3 km/h 20.9 km/h 88% 0 mm 116 W/m2
08:59 14.3 °C 12.3 °C 1016.8 hPa SSW 8.4 km/h 17.7 km/h 88% 0 mm 77 W/m2
09:04 14.4 °C 12.6 °C 1016.8 hPa SSW 8.9 km/h 16.1 km/h 89% 0 mm 88 W/m2
09:09 14.4 °C 12.6 °C 1016.8 hPa SSW 9.3 km/h 16.1 km/h 89% 0 mm 120 W/m2
09:14 14.4 °C 12.6 °C 1016.8 hPa SW 9.3 km/h 16.1 km/h 89% 0 mm 132 W/m2
09:19 14.5 °C 12.7 °C 1016.8 hPa SSW 11.3 km/h 19.3 km/h 89% 0 mm 227 W/m2
09:24 14.6 °C 12.8 °C 1016.8 hPa SSW 10.9 km/h 19.3 km/h 89% 0 mm 169 W/m2
09:29 14.6 °C 12.8 °C 1017.2 hPa SW 9.7 km/h 19.3 km/h 89% 0 mm 149 W/m2
09:34 14.6 °C 12.8 °C 1017.2 hPa SW 9.5 km/h 19.3 km/h 89% 0 mm 118 W/m2
09:39 14.4 °C 12.7 °C 1016.8 hPa SSW 9.7 km/h 17.7 km/h 89.4% 0 mm 128 W/m2
09:44 14.4 °C 12.8 °C 1016.8 hPa SW 7.1 km/h 17.7 km/h 90% 0 mm 148 W/m2
09:49 14.4 °C 12.8 °C 1016.8 hPa SSW 7.2 km/h 19.3 km/h 90% 0 mm 135 W/m2
09:54 14.4 °C 12.8 °C 1016.8 hPa SSW 7.1 km/h 19.3 km/h 90% 0 mm 234 W/m2
09:59 14.6 °C 13.1 °C 1016.8 hPa SSW 8.9 km/h 12.9 km/h 90.6% 0 mm 243 W/m2
10:04 14.7 °C 13.2 °C 1016.8 hPa SSW 6.1 km/h 14.5 km/h 90.8% 0 mm 213 W/m2
10:09 14.8 °C 13.2 °C 1016.8 hPa South 5.3 km/h 12.9 km/h 90% 0 mm 163 W/m2
10:14 14.8 °C 13.2 °C 1016.8 hPa South 8.4 km/h 17.7 km/h 90% 0 mm 160 W/m2
10:19 14.8 °C 13.2 °C 1016.5 hPa SSW 6.1 km/h 14.5 km/h 90% 0 mm 218 W/m2
10:24 14.8 °C 13.2 °C 1016.5 hPa South 9.7 km/h 17.7 km/h 90% 0 mm 250 W/m2
10:29 14.8 °C 13.3 °C 1016.5 hPa SSW 9.8 km/h 16.1 km/h 90% 0 mm 292 W/m2
10:34 15.1 °C 13.5 °C 1016.5 hPa SW 8.4 km/h 14.5 km/h 90% 0 mm 211 W/m2
10:39 15.2 °C 13.7 °C 1016.8 hPa SW 8.2 km/h 17.7 km/h 90% 0 mm 394 W/m2
10:44 15.5 °C 13.8 °C 1016.8 hPa SW 10.6 km/h 17.7 km/h 89.4% 0 mm 394 W/m2
10:48 15.7 °C 13.8 °C 1016.8 hPa South 10.8 km/h 22.5 km/h 88.3% 0 mm 343 W/m2
10:54 15.9 °C 13.7 °C 1016.8 hPa SW 10 km/h 19.3 km/h 87% 0 mm 315 W/m2
10:59 15.9 °C 13.6 °C 1016.8 hPa SSW 12.7 km/h 22.5 km/h 85.6% 0 mm 311 W/m2
11:04 16.1 °C 13.6 °C 1016.8 hPa SSW 9.2 km/h 17.7 km/h 85% 0 mm 302 W/m2
11:09 16.2 °C 13.6 °C 1016.8 hPa SW 10 km/h 17.7 km/h 84.6% 0 mm 267 W/m2
11:14 16.3 °C 13.6 °C 1016.8 hPa SW 10 km/h 17.7 km/h 84% 0 mm 265 W/m2
11:19 16.4 °C 13.7 °C 1016.8 hPa SW 11.3 km/h 22.5 km/h 84% 0 mm 385 W/m2
11:24 16.4 °C 13.6 °C 1016.5 hPa SW 10 km/h 22.5 km/h 83% 0 mm 573 W/m2
11:29 16.8 °C 13.7 °C 1016.5 hPa South 7.7 km/h 17.7 km/h 82% 0 mm 401 W/m2
11:34 16.9 °C 13.7 °C 1016.1 hPa SSW 10.8 km/h 22.5 km/h 81.2% 0 mm 480 W/m2
11:39 17.2 °C 13.7 °C 1016.1 hPa South 8.7 km/h 20.9 km/h 80.4% 0 mm 508 W/m2
11:44 17.2 °C 13.7 °C 1016.1 hPa SSW 12.7 km/h 24.1 km/h 79.8% 0 mm 315 W/m2
11:49 17.2 °C 13.3 °C 1016.1 hPa SSW 14.2 km/h 27.4 km/h 78% 0 mm 278 W/m2
11:54 17.1 °C 13.1 °C 1016.5 hPa SSW 11.9 km/h 27.4 km/h 77.4% 0 mm 225 W/m2
11:59 17.1 °C 13.2 °C 1016.5 hPa SW 13.5 km/h 27.4 km/h 77.8% 0 mm 178 W/m2
12:04 16.9 °C 13 °C 1016.5 hPa SW 13.8 km/h 27.4 km/h 77.8% 0 mm 188 W/m2
12:09 16.9 °C 13 °C 1016.5 hPa SW 12.2 km/h 22.5 km/h 78% 0 mm 227 W/m2
12:14 17.1 °C 13.2 °C 1016.5 hPa SW 10.3 km/h 19.3 km/h 78% 0 mm 216 W/m2
12:19 17.1 °C 13.2 °C 1016.5 hPa SSW 13.8 km/h 25.7 km/h 78% 0 mm 192 W/m2
12:24 17 °C 12.9 °C 1016.5 hPa SW 13.7 km/h 27.4 km/h 77% 0 mm 211 W/m2
12:29 17.1 °C 13 °C 1016.5 hPa SW 10.9 km/h 29 km/h 77.4% 0 mm 216 W/m2
12:34 17.1 °C 13.1 °C 1016.1 hPa SSW 9.7 km/h 25.7 km/h 77.2% 0 mm 234 W/m2
12:39 17.1 °C 13.1 °C 1016.1 hPa SW 11.9 km/h 20.9 km/h 77.6% 0 mm 264 W/m2
12:44 17.2 °C 13.1 °C 1016.1 hPa SSW 16.7 km/h 24.1 km/h 77.2% 0 mm 248 W/m2
12:49 17.1 °C 12.9 °C 1016.1 hPa SW 17.1 km/h 27.4 km/h 77% 0 mm 155 W/m2
12:54 16.9 °C 12.9 °C 1016.5 hPa SW 10.8 km/h 24.1 km/h 77.6% 0 mm 90 W/m2
12:58 16.8 °C 12.9 °C 1016.5 hPa SW 16.4 km/h 24.1 km/h 78% 0 mm 127 W/m2
13:04 16.8 °C 12.9 °C 1016.5 hPa SW 9.7 km/h 20.9 km/h 78% 0 mm 214 W/m2
13:09 16.8 °C 12.9 °C 1016.1 hPa SSW 12.2 km/h 20.9 km/h 78% 0 mm 200 W/m2
13:14 16.8 °C 12.9 °C 1016.1 hPa SSW 12.2 km/h 20.9 km/h 78.4% 0 mm 137 W/m2
13:19 16.7 °C 12.9 °C 1016.1 hPa SSW 10.9 km/h 22.5 km/h 79% 0 mm 142 W/m2
13:24 16.6 °C 12.9 °C 1015.8 hPa SSW 10 km/h 25.7 km/h 79.2% 0 mm 192 W/m2
13:29 16.7 °C 13.2 °C 1015.8 hPa South 8.5 km/h 16.1 km/h 80% 0 mm 267 W/m2
13:34 16.8 °C 13.2 °C 1015.8 hPa SSW 9 km/h 17.7 km/h 79.4% 0 mm 218 W/m2
13:39 16.8 °C 13.2 °C 1015.8 hPa South 8.9 km/h 20.9 km/h 79.4% 0 mm 211 W/m2
13:44 17.1 °C 13.4 °C 1015.8 hPa SW 8.4 km/h 20.9 km/h 79% 0 mm 260 W/m2
13:49 17.2 °C 13.4 °C 1016.1 hPa SW 6.6 km/h 19.3 km/h 79% 0 mm 272 W/m2
13:54 17.3 °C 13.4 °C 1015.8 hPa SSW 12.2 km/h 22.5 km/h 78% 0 mm 274 W/m2
13:59 17.4 °C 13.5 °C 1015.8 hPa SSW 10.8 km/h 22.5 km/h 78% 0 mm 313 W/m2
14:04 17.6 °C 13.7 °C 1015.8 hPa SSW 10 km/h 20.9 km/h 77.8% 0 mm 299 W/m2
14:09 17.7 °C 13.6 °C 1015.5 hPa SSW 13.2 km/h 27.4 km/h 77% 0 mm 659 W/m2
14:14 18.1 °C 13.8 °C 1015.5 hPa SSW 14.8 km/h 27.4 km/h 76% 0 mm 663 W/m2
14:19 18.1 °C 13.7 °C 1015.8 hPa South 12.9 km/h 30.6 km/h 75.6% 0 mm 225 W/m2
14:24 17.8 °C 13.4 °C 1015.8 hPa SSW 15.8 km/h 27.4 km/h 75.6% 0 mm 151 W/m2
14:29 17.8 °C 13.5 °C 1015.8 hPa SSW 11.7 km/h 19.3 km/h 76% 0 mm 163 W/m2
14:34 17.8 °C 13.6 °C 1015.8 hPa SW 15.1 km/h 25.7 km/h 76.4% 0 mm 160 W/m2
14:39 17.8 °C 13.7 °C 1015.5 hPa SSW 13.5 km/h 24.1 km/h 77% 0 mm 383 W/m2
14:44 18.1 °C 13.9 °C 1015.5 hPa SW 9.5 km/h 20.9 km/h 76.6% 0 mm 506 W/m2
14:49 18.4 °C 13.9 °C 1015.5 hPa SW 13.8 km/h 30.6 km/h 75.4% 0 mm 485 W/m2
14:54 18.3 °C 13.8 °C 1015.5 hPa WSW 12.2 km/h 25.7 km/h 75% 0 mm 264 W/m2
14:59 18.3 °C 13.8 °C 1015.5 hPa SW 10.1 km/h 19.3 km/h 75% 0 mm 285 W/m2
15:04 18.4 °C 13.9 °C 1015.5 hPa SW 15.1 km/h 35.4 km/h 75% 0 mm 362 W/m2
15:09 18.3 °C 13.8 °C 1015.1 hPa SSW 14.2 km/h 29 km/h 75% 0 mm 520 W/m2
15:14 18.3 °C 13.9 °C 1015.5 hPa SW 15.8 km/h 29 km/h 75.6% 0 mm 475 W/m2
15:19 18.2 °C 13.8 °C 1015.1 hPa SSW 13.8 km/h 33.8 km/h 75.8% 0 mm 411 W/m2
15:24 18.3 °C 13.9 °C 1015.1 hPa SW 13.2 km/h 29 km/h 76% 0 mm 288 W/m2
15:29 18.3 °C 14 °C 1015.5 hPa WSW 10.9 km/h 20.9 km/h 76% 0 mm 146 W/m2
15:34 18.1 °C 13.9 °C 1015.5 hPa SW 11.3 km/h 20.9 km/h 76.6% 0 mm 130 W/m2
15:39 18 °C 13.9 °C 1015.5 hPa SW 7.7 km/h 20.9 km/h 77% 0 mm 223 W/m2
15:44 18 °C 13.9 °C 1015.5 hPa SW 11.9 km/h 19.3 km/h 77% 0 mm 234 W/m2
15:49 17.8 °C 13.8 °C 1015.1 hPa SW 14.5 km/h 25.7 km/h 77.6% 0 mm 195 W/m2
15:54 17.9 °C 14 °C 1015.1 hPa SW 9.7 km/h 22.5 km/h 78% 0 mm 100 W/m2
15:59 17.8 °C 13.9 °C 1015.1 hPa SW 7.7 km/h 24.1 km/h 78% 0 mm 98 W/m2
16:04 17.8 °C 13.8 °C 1015.1 hPa SW 7.9 km/h 20.9 km/h 78% 0 mm 69 W/m2
16:09 17.7 °C 14 °C 1015.5 hPa SSW 5.8 km/h 11.3 km/h 79% 0 mm 63 W/m2
16:14 17.6 °C 13.8 °C 1015.5 hPa SW 8.4 km/h 22.5 km/h 79% 0 mm 58 W/m2
16:19 17.4 °C 13.7 °C 1015.1 hPa WSW 9 km/h 20.9 km/h 79% 0 mm 56 W/m2
16:24 17.3 °C 13.8 °C 1015.1 hPa WSW 7.6 km/h 19.3 km/h 79.8% 0 mm 83 W/m2
16:29 17.3 °C 13.8 °C 1015.1 hPa SW 8.4 km/h 19.3 km/h 80% 0 mm 81 W/m2
16:34 17.4 °C 13.9 °C 1015.1 hPa SW 6.3 km/h 12.9 km/h 80% 0 mm 53 W/m2
16:39 17.3 °C 13.8 °C 1015.1 hPa SW 6.3 km/h 14.5 km/h 80% 0 mm 35 W/m2
16:44 17.2 °C 13.7 °C 1015.1 hPa SW 8 km/h 20.9 km/h 80% 0 mm 32 W/m2
16:49 17.2 °C 13.7 °C 1015.1 hPa SSW 10.6 km/h 24.1 km/h 80.4% 0 mm 32 W/m2
16:54 17.1 °C 13.8 °C 1015.1 hPa SW 10.9 km/h 24.1 km/h 81% 0 mm 49 W/m2
16:59 17 °C 13.7 °C 1015.1 hPa South 10.5 km/h 17.7 km/h 81% 0 mm 49 W/m2
17:04 16.9 °C 13.6 °C 1014.8 hPa SSW 11.9 km/h 19.3 km/h 81% 0 mm 53 W/m2
17:09 16.8 °C 13.6 °C 1014.8 hPa SSW 9.7 km/h 22.5 km/h 81.6% 0 mm 60 W/m2
17:14 16.8 °C 13.7 °C 1014.8 hPa SSW 13.5 km/h 30.6 km/h 82% 0 mm 88 W/m2
17:19 16.8 °C 13.7 °C 1014.8 hPa SSW 14.5 km/h 29 km/h 82% 0 mm 128 W/m2
17:24 16.8 °C 13.7 °C 1014.8 hPa SSW 10.5 km/h 30.6 km/h 82% 0 mm 163 W/m2
17:29 16.9 °C 13.6 °C 1014.8 hPa SSW 13.2 km/h 25.7 km/h 81% 0 mm 137 W/m2
17:34 16.9 °C 13.6 °C 1014.8 hPa SW 10.3 km/h 20.9 km/h 81% 0 mm 65 W/m2
17:39 16.8 °C 13.6 °C 1014.8 hPa SW 15.1 km/h 24.1 km/h 81% 0 mm 23 W/m2
17:44 16.8 °C 13.6 °C 1014.8 hPa SW 10.1 km/h 22.5 km/h 81.6% 0 mm 25 W/m2
17:49 16.8 °C 13.7 °C 1014.8 hPa SW 8.7 km/h 20.9 km/h 82% 0 mm 23 W/m2
17:54 16.7 °C 13.6 °C 1014.8 hPa SSW 10.9 km/h 22.5 km/h 82% 0 mm 21 W/m2
17:59 16.7 °C 13.6 °C 1014.8 hPa SW 17.1 km/h 24.1 km/h 82% 0 mm 23 W/m2
18:04 16.6 °C 13.5 °C 1014.8 hPa SW 15.6 km/h 24.1 km/h 82% 0 mm 23 W/m2
18:09 16.6 °C 13.5 °C 1014.8 hPa SW 14.8 km/h 29 km/h 82% 0 mm 12 W/m2
18:14 16.6 °C 13.5 °C 1014.8 hPa SW 14.5 km/h 29 km/h 82% 0 mm 14 W/m2
18:19 16.6 °C 13.5 °C 1014.4 hPa SSW 14.2 km/h 27.4 km/h 82% 0 mm 18 W/m2
18:24 16.5 °C 13.4 °C 1014.4 hPa SSW 16.7 km/h 25.7 km/h 82% 0 mm 14 W/m2
18:29 16.4 °C 13.4 °C 1014.8 hPa SSW 11.3 km/h 24.1 km/h 82.6% 0 mm 12 W/m2
18:34 16.4 °C 13.5 °C 1014.8 hPa SSW 17.2 km/h 29 km/h 83% 0 mm 7 W/m2
18:39 16.4 °C 13.5 °C 1014.8 hPa SW 19.3 km/h 29 km/h 83% 0 mm 0 W/m2
18:44 16.4 °C 13.5 °C 1014.8 hPa SSW 14.5 km/h 27.4 km/h 83% 0 mm 0 W/m2
18:49 16.4 °C 13.5 °C 1014.4 hPa SSW 14.2 km/h 20.9 km/h 83% 0 mm 0 W/m2
18:54 16.3 °C 13.4 °C 1014.4 hPa SSW 10.6 km/h 22.5 km/h 83% 0 mm 0 W/m2
18:59 16.3 °C 13.4 °C 1014.4 hPa SW 14.2 km/h 24.1 km/h 83% 0 mm 0 W/m2
19:04 16.3 °C 13.4 °C 1014.8 hPa SSW 7.9 km/h 17.7 km/h 83% 0 mm 0 W/m2
19:09 16.3 °C 13.4 °C 1014.8 hPa SSW 10.9 km/h 22.5 km/h 83% 0 mm 0 W/m2
19:14 16.3 °C 13.4 °C 1014.4 hPa SSW 10 km/h 20.9 km/h 83% 0 mm 0 W/m2
19:19 16.3 °C 13.4 °C 1014.4 hPa SSW 16.4 km/h 27.4 km/h 83% 0 mm 0 W/m2
19:24 16.3 °C 13.4 °C 1014.4 hPa SW 16.7 km/h 27.4 km/h 83% 0 mm 0 W/m2
19:29 16.3 °C 13.3 °C 1014.4 hPa SSW 12.9 km/h 24.1 km/h 83% 0 mm 0 W/m2
19:34 16.2 °C 13.3 °C 1014.4 hPa SW 14.8 km/h 25.7 km/h 83% 0 mm 0 W/m2
19:39 16.2 °C 13.3 °C 1014.4 hPa SW 13.5 km/h 24.1 km/h 83% 0 mm 0 W/m2
19:44 16.2 °C 13.3 °C 1014.4 hPa SW 11.9 km/h 22.5 km/h 83% 0 mm 0 W/m2
19:49 16.1 °C 13.2 °C 1014.4 hPa SW 11.6 km/h 22.5 km/h 83% 0 mm 0 W/m2
19:54 16.1 °C 13.3 °C 1014.4 hPa SW 11.6 km/h 27.4 km/h 83.8% 0 mm 0 W/m2
19:59 16.1 °C 13.4 °C 1014.4 hPa SW 16.4 km/h 27.4 km/h 84% 0 mm 0 W/m2
20:04 16.1 °C 13.4 °C 1014.4 hPa SW 10 km/h 22.5 km/h 84% 0 mm 0 W/m2
20:09 16.1 °C 13.4 °C 1014.4 hPa SW 10 km/h 24.1 km/h 84% 0 mm 0 W/m2
20:14 16.1 °C 13.4 °C 1014.4 hPa SSW 13.8 km/h 29 km/h 84% 0 mm 0 W/m2
20:19 16.1 °C 13.4 °C 1014.4 hPa SSW 13.5 km/h 29 km/h 84% 0 mm 0 W/m2
20:24 16.1 °C 13.4 °C 1014.4 hPa SSW 5.5 km/h 16.1 km/h 84% 0 mm 0 W/m2
20:29 16.1 °C 13.4 °C 1014.4 hPa South 11.9 km/h 19.3 km/h 84% 0 mm 0 W/m2
20:34 16.1 °C 13.4 °C 1014.4 hPa SSW 10.6 km/h 20.9 km/h 84% 0 mm 0 W/m2
20:39 16.1 °C 13.4 °C 1014.4 hPa SW 7.9 km/h 19.3 km/h 84% 0 mm 0 W/m2
20:44 16.1 °C 13.4 °C 1014.4 hPa SSW 6 km/h 19.3 km/h 84% 0 mm 0 W/m2
20:49 16 °C 13.3 °C 1014.4 hPa SW 8.4 km/h 12.9 km/h 84% 0 mm 0 W/m2
20:54 16 °C 13.3 °C 1014.4 hPa SSW 6.3 km/h 12.9 km/h 84% 0 mm 0 W/m2
20:59 15.9 °C 13.2 °C 1014.1 hPa SSW 7.4 km/h 12.9 km/h 84% 0 mm 0 W/m2
21:04 15.9 °C 13.2 °C 1014.1 hPa SSW 8.4 km/h 14.5 km/h 84% 0 mm 0 W/m2
21:09 15.9 °C 13.3 °C 1014.1 hPa SW 10.3 km/h 17.7 km/h 84% 0 mm 0 W/m2
21:14 16 °C 13.3 °C 1014.1 hPa SW 8.2 km/h 17.7 km/h 84% 0 mm 0 W/m2
21:19 16.1 °C 13.3 °C 1014.1 hPa SSW 5.1 km/h 11.3 km/h 84% 0 mm 0 W/m2
21:24 16.1 °C 13.4 °C 1014.1 hPa SW 12.9 km/h 22.5 km/h 84% 0 mm 0 W/m2
21:29 16.1 °C 13.4 °C 1014.1 hPa SW 7.7 km/h 16.1 km/h 84% 0 mm 0 W/m2
21:34 16.1 °C 13.4 °C 1014.1 hPa SSW 6.1 km/h 16.1 km/h 84% 0 mm 0 W/m2
21:39 16.1 °C 13.4 °C 1014.1 hPa SSW 6 km/h 12.9 km/h 84% 0 mm 0 W/m2
21:44 16.2 °C 13.5 °C 1013.8 hPa SSW 8.7 km/h 19.3 km/h 84% 0 mm 0 W/m2
21:49 16.2 °C 13.4 °C 1013.8 hPa SSW 9.7 km/h 16.1 km/h 83.6% 0 mm 0 W/m2
21:54 16.2 °C 13.3 °C 1014.1 hPa South 7.1 km/h 16.1 km/h 83% 0 mm 0 W/m2
21:59 16.2 °C 13.3 °C 1013.8 hPa South 10.1 km/h 25.7 km/h 83% 0 mm 0 W/m2
22:04 16.2 °C 13.3 °C 1013.8 hPa South 9 km/h 16.1 km/h 83% 0 mm 0 W/m2
22:09 16.2 °C 13.3 °C 1013.8 hPa South 6 km/h 11.3 km/h 83% 0 mm 0 W/m2
22:14 16.2 °C 13.3 °C 1013.8 hPa South 5.1 km/h 16.1 km/h 83% 0 mm 0 W/m2
22:19 16.2 °C 13.3 °C 1013.8 hPa SSE 4.7 km/h 14.5 km/h 83% 0 mm 0 W/m2
22:24 16.2 °C 13.3 °C 1013.8 hPa South 6.4 km/h 14.5 km/h 83% 0 mm 0 W/m2
22:29 16.2 °C 13.3 °C 1013.8 hPa South 5.8 km/h 19.3 km/h 83.2% 0 mm 0 W/m2
22:34 16.2 °C 13.3 °C 1013.8 hPa South 4 km/h 8 km/h 83% 0 mm 0 W/m2
22:39 16.2 °C 13.3 °C 1013.4 hPa South 5.3 km/h 14.5 km/h 83% 0 mm 0 W/m2
22:44 16.2 °C 13.3 °C 1013.4 hPa SSW 10.6 km/h 24.1 km/h 83% 0 mm 0 W/m2
22:49 16.2 °C 13.3 °C 1013.4 hPa SSE 10.8 km/h 24.1 km/h 83% 0 mm 0 W/m2
22:54 16.2 °C 13.3 °C 1013.4 hPa South 6.1 km/h 14.5 km/h 83% 0 mm 0 W/m2
22:59 16.2 °C 13.3 °C 1013.4 hPa SSE 9.8 km/h 22.5 km/h 83% 0 mm 0 W/m2
23:04 16.2 °C 13.3 °C 1013.4 hPa SSW 12.1 km/h 22.5 km/h 83% 0 mm 0 W/m2
23:09 16.2 °C 13.3 °C 1013.4 hPa South 6.4 km/h 14.5 km/h 83% 0 mm 0 W/m2
23:14 16.2 °C 13.3 °C 1013.4 hPa South 9 km/h 27.4 km/h 83% 0 mm 0 W/m2
23:19 16.3 °C 13.4 °C 1013.1 hPa South 7.7 km/h 20.9 km/h 83% 0 mm 0 W/m2
23:24 16.3 °C 13.4 °C 1013.1 hPa South 8.4 km/h 24.1 km/h 83% 0 mm 0 W/m2
23:29 16.3 °C 13.4 °C 1013.1 hPa South 5.6 km/h 24.1 km/h 83% 0 mm 0 W/m2
23:34 16.3 °C 13.4 °C 1013.1 hPa South 12.2 km/h 32.2 km/h 83% 0 mm 0 W/m2
23:39 16.3 °C 13.4 °C 1013.1 hPa SSW 17.1 km/h 30.6 km/h 83% 0 mm 0 W/m2
23:44 16.3 °C 13.4 °C 1012.8 hPa South 7.9 km/h 30.6 km/h 83% 0 mm 0 W/m2
23:49 16.3 °C 13.4 °C 1012.8 hPa SW 13.8 km/h 30.6 km/h 83% 0 mm 0 W/m2
23:54 16.3 °C 13.4 °C 1012.8 hPa SSW 10 km/h 24.1 km/h 83% 0 mm 0 W/m2
23:59 16.3 °C 13.4 °C 1012.8 hPa SSW 5.1 km/h 25.7 km/h 83% 0 mm 0 W/m2
Bath Spa Weather
Compliments of Weather Underground - 2 mb